Time;durP1;ratioP1;P1;durP2;ratioP2;P2;SDS_P1;SDS_P2;PMS_P1;PMS_P2;Temp;Humidity;BMP_temperature;BMP_pressure;BME280_temperature;BME280_humidity;BME280_pressure;Samples;Min_cycle;Max_cycle;Signal;HPM_P1;HPM_P2
2022/05/17 00:00:41;;;;;;;7.03;4.57;;;;;;;18.15;45.85;95163.34;5052284;28;20235;-68
2022/05/17 00:03:07;;;;;;;7.35;4.10;;;;;;;18.12;45.00;95163.69;5062910;28;20235;-68
2022/05/17 00:05:33;;;;;;;5.57;3.85;;;;;;;18.07;44.69;95159.00;5065794;28;22066;-63
2022/05/17 00:07:59;;;;;;;5.95;3.85;;;;;;;18.05;44.25;95165.53;5062052;28;20193;-65
2022/05/17 00:10:26;;;;;;;4.10;3.70;;;;;;;17.91;45.35;95161.94;5062844;28;20439;-65
2022/05/17 00:12:51;;;;;;;5.72;4.00;;;;;;;18.08;45.26;95163.28;5061083;28;20516;-66
2022/05/17 00:15:18;;;;;;;6.32;3.90;;;;;;;17.96;46.44;95162.19;5063601;28;21331;-64
2022/05/17 00:17:45;;;;;;;6.03;4.03;;;;;;;17.81;47.31;95175.56;5063254;28;20224;-65
2022/05/17 00:20:13;;;;;;;9.18;4.47;;;;;;;17.91;47.14;95169.94;5065420;28;20612;-65
2022/05/17 00:22:39;;;;;;;6.30;5.20;;;;;;;17.78;48.05;95169.78;5067947;28;20263;-67
2022/05/17 00:25:06;;;;;;;5.90;5.30;;;;;;;17.56;48.89;95169.81;5064306;28;20315;-67
2022/05/17 00:27:31;;;;;;;6.63;5.05;;;;;;;17.51;49.38;95166.06;5063599;28;20216;-67
2022/05/17 00:29:57;;;;;;;6.78;5.55;;;;;;;17.47;49.38;95170.94;5065158;28;20208;-67
2022/05/17 00:32:22;;;;;;;9.07;5.30;;;;;;;17.38;49.55;95166.78;5065156;28;20207;-64
2022/05/17 00:34:48;;;;;;;10.40;5.63;;;;;;;17.27;49.70;95160.16;5063967;28;20236;-68
2022/05/17 00:37:14;;;;;;;8.55;5.43;;;;;;;17.33;49.51;95170.00;5064926;28;20213;-64
2022/05/17 00:39:40;;;;;;;7.18;5.13;;;;;;;17.38;49.35;95162.28;5067343;28;20261;-67
2022/05/17 00:42:06;;;;;;;7.72;5.78;;;;;;;17.55;49.44;95170.81;5062401;28;20276;-68
2022/05/17 00:44:44;;;;;;;6.07;5.32;;;;;;;17.48;49.76;95163.78;5059902;28;20292;-68
2022/05/17 00:47:23;;;;;;;10.25;6.22;;;;;;;17.24;50.30;95171.16;5073012;28;20225;-67
2022/05/17 00:49:56;;;;;;;6.05;5.45;;;;;;;17.34;49.88;95170.81;5058543;28;20224;-69
2022/05/17 00:52:46;;;;;;;7.63;5.20;;;;;;;17.43;49.61;95164.38;5061126;28;20217;-64
2022/05/17 00:55:19;;;;;;;11.60;5.57;;;;;;;17.53;48.85;95170.19;5064959;28;20237;-67
2022/05/17 00:57:55;;;;;;;6.72;5.55;;;;;;;17.37;49.34;95171.28;5064689;28;20224;-65
2022/05/17 01:00:21;;;;;;;6.30;5.70;;;;;;;17.38;49.17;95169.44;5060284;28;20221;-67
2022/05/17 01:02:53;;;;;;;8.80;5.47;;;;;;;17.38;49.41;95169.44;5066941;28;20225;-69
2022/05/17 01:05:21;;;;;;;9.35;5.75;;;;;;;17.30;49.67;95159.75;5061236;28;20244;-64
2022/05/17 01:07:53;;;;;;;8.77;5.30;;;;;;;17.34;48.77;95157.53;5064028;28;20204;-66
2022/05/17 01:10:20;;;;;;;5.60;5.10;;;;;;;17.28;49.50;95161.78;5062282;28;20341;-67
2022/05/17 01:14:57;;;;;;;7.00;5.72;;;;;;;17.05;50.25;95156.63;5063504;28;20229;-67
2022/05/17 01:15:31;;;;;;;6.97;5.20;;;;;;;16.98;50.52;95151.25;5067737;28;20212;-65
2022/05/17 01:17:56;;;;;;;8.63;5.18;;;;;;;17.12;49.62;95149.56;5064571;28;20228;-65
2022/05/17 01:20:22;;;;;;;6.20;4.78;;;;;;;16.96;49.79;95144.47;5064954;28;20204;-66
2022/05/17 01:22:47;;;;;;;7.07;5.03;;;;;;;16.94;49.92;95154.47;5062717;28;20201;-67
2022/05/17 01:25:13;;;;;;;6.07;4.55;;;;;;;17.01;49.54;95147.41;5062252;28;20217;-67
2022/05/17 01:27:50;;;;;;;7.57;5.40;;;;;;;16.90;49.87;95148.72;5063936;28;20219;-64
2022/05/17 01:30:19;;;;;;;5.22;4.38;;;;;;;16.68;50.83;95142.53;5061369;28;20228;-65
2022/05/17 01:32:45;;;;;;;9.43;5.18;;;;;;;16.81;50.29;95139.19;5064367;28;20311;-66
2022/05/17 01:35:11;;;;;;;6.28;5.00;;;;;;;16.78;50.75;95134.28;5062863;28;20348;-63
2022/05/17 01:37:36;;;;;;;6.00;4.95;;;;;;;16.89;50.73;95138.28;5061233;28;20219;-64
2022/05/17 01:40:03;;;;;;;7.18;4.70;;;;;;;16.91;50.67;95137.06;5061236;28;20244;-65
2022/05/17 01:42:28;;;;;;;8.25;5.10;;;;;;;16.81;50.71;95141.84;5061263;28;20220;-69
2022/05/17 01:44:57;;;;;;;8.13;5.10;;;;;;;16.78;51.08;95142.22;5061817;28;20231;-67
2022/05/17 01:47:22;;;;;;;8.05;5.35;;;;;;;16.53;51.72;95141.72;5059803;28;20227;-69
2022/05/17 01:49:48;;;;;;;7.88;5.60;;;;;;;16.53;51.93;95147.03;5064613;28;20204;-69
2022/05/17 01:52:13;;;;;;;6.28;5.50;;;;;;;16.59;51.73;95143.63;5062757;28;20230;-63
2022/05/17 01:54:38;;;;;;;7.93;5.35;;;;;;;16.45;51.93;95147.13;5057590;28;20239;-63
2022/05/17 01:57:04;;;;;;;6.32;5.03;;;;;;;16.30;51.89;95140.00;5061656;28;20221;-63
2022/05/17 01:59:33;;;;;;;5.53;4.95;;;;;;;16.41;51.63;95148.50;5062553;28;20244;-67
2022/05/17 02:01:58;;;;;;;7.18;5.25;;;;;;;16.43;51.70;95151.78;5060829;28;20220;-64
2022/05/17 02:04:24;;;;;;;7.70;5.25;;;;;;;16.43;51.52;95155.25;5059972;28;20286;-64
2022/05/17 02:06:49;;;;;;;6.05;4.95;;;;;;;16.37;51.87;95168.47;5070268;28;20228;-64
2022/05/17 02:09:15;;;;;;;8.63;4.72;;;;;;;16.26;52.54;95151.97;5066218;28;20225;-68
2022/05/17 02:11:40;;;;;;;10.07;5.38;;;;;;;16.25;52.24;95162.75;5060958;28;20247;-67
2022/05/17 02:14:09;;;;;;;6.47;4.70;;;;;;;16.28;52.08;95157.94;5064096;28;20192;-67
2022/05/17 02:16:37;;;;;;;5.32;4.80;;;;;;;16.20;52.25;95151.88;5065162;28;20249;-68
2022/05/17 02:19:03;;;;;;;7.47;4.60;;;;;;;16.34;52.02;95152.91;5058910;28;20217;-67
2022/05/17 02:21:28;;;;;;;7.65;5.00;;;;;;;16.41;51.74;95154.66;5060929;28;20288;-66
2022/05/17 02:23:54;;;;;;;7.72;4.88;;;;;;;16.36;52.02;95156.19;5062062;28;20307;-67
2022/05/17 02:26:19;;;;;;;6.95;4.68;;;;;;;16.14;52.42;95157.91;5061852;28;20220;-67
2022/05/17 02:28:45;;;;;;;8.40;5.45;;;;;;;16.13;52.40;95162.41;5059600;28;20274;-67
2022/05/17 02:31:15;;;;;;;7.30;5.35;;;;;;;16.27;52.04;95158.94;5060501;28;20213;-65
2022/05/17 02:33:41;;;;;;;8.15;5.32;;;;;;;16.30;51.75;95158.59;5059984;28;20248;-64
2022/05/17 02:36:06;;;;;;;5.47;4.72;;;;;;;16.36;51.59;95150.88;5063570;28;20252;-66
2022/05/17 02:38:32;;;;;;;8.70;5.38;;;;;;;16.28;51.82;95160.59;5062670;28;20201;-69
2022/05/17 02:40:57;;;;;;;7.10;5.35;;;;;;;16.26;52.18;95159.94;5062490;28;20265;-66
2022/05/17 02:43:23;;;;;;;7.07;4.63;;;;;;;16.03;53.12;95156.53;5066600;28;20240;-68
2022/05/17 02:45:48;;;;;;;6.35;4.97;;;;;;;16.06;52.93;95150.88;5062479;28;20224;-67
2022/05/17 02:48:14;;;;;;;4.88;4.50;;;;;;;16.06;52.86;95154.38;5059563;28;20752;-69
2022/05/17 02:50:40;;;;;;;6.55;4.43;;;;;;;16.07;52.88;95149.88;5050343;28;20224;-67
2022/05/17 02:53:05;;;;;;;5.38;4.88;;;;;;;16.03;53.00;95152.06;5061315;28;20300;-63
2022/05/17 02:55:33;;;;;;;8.55;5.18;;;;;;;15.97;53.11;95157.28;5063228;28;20304;-68
2022/05/17 02:57:59;;;;;;;7.40;4.75;;;;;;;15.79;53.75;95153.13;5060083;28;20974;-67
2022/05/17 03:00:26;;;;;;;7.93;4.70;;;;;;;15.71;54.06;95163.00;5063252;28;20251;-68
2022/05/17 03:02:52;;;;;;;9.15;5.53;;;;;;;15.78;53.72;95159.44;5060911;28;20224;-65
2022/05/17 03:05:17;;;;;;;9.55;5.05;;;;;;;15.75;53.30;95154.50;5060261;28;20255;-67
2022/05/17 03:07:43;;;;;;;10.10;5.50;;;;;;;15.62;53.48;95160.38;5062547;28;20255;-64
2022/05/17 03:10:10;;;;;;;9.55;4.82;;;;;;;15.57;53.35;95161.94;5060460;28;20227;-68
2022/05/17 03:12:35;;;;;;;6.88;4.45;;;;;;;15.57;53.52;95162.75;5060100;28;20229;-68
2022/05/17 03:15:02;;;;;;;8.65;5.10;;;;;;;15.74;53.37;95168.75;5065645;28;20224;-67
2022/05/17 03:17:27;;;;;;;10.52;5.03;;;;;;;15.74;53.28;95155.50;5065637;28;20243;-67
2022/05/17 03:19:54;;;;;;;11.07;5.13;;;;;;;15.81;53.10;95152.97;5062848;28;20208;-68
2022/05/17 03:22:19;;;;;;;7.32;5.15;;;;;;;15.75;52.88;95148.38;5055060;28;20235;-68
2022/05/17 03:24:45;;;;;;;8.77;5.10;;;;;;;15.69;53.33;95165.84;5061288;28;20233;-65
2022/05/17 03:27:10;;;;;;;7.13;5.53;;;;;;;15.67;53.26;95157.22;5054951;28;20235;-67
2022/05/17 03:29:38;;;;;;;12.07;5.68;;;;;;;15.73;53.48;95155.69;5061083;28;20228;-64
2022/05/17 03:32:04;;;;;;;11.88;6.18;;;;;;;15.67;53.52;95159.84;5066909;28;20192;-68
2022/05/17 03:34:32;;;;;;;7.80;5.30;;;;;;;15.73;53.47;95171.59;5069220;28;20220;-67
2022/05/17 03:36:57;;;;;;;8.63;5.68;;;;;;;15.73;53.61;95167.13;5055015;28;20224;-66
2022/05/17 03:39:22;;;;;;;8.15;5.65;;;;;;;15.76;53.60;95165.94;5064978;28;20212;-67
2022/05/17 03:41:48;;;;;;;9.85;5.40;;;;;;;15.71;53.96;95169.13;5066050;28;20209;-68
2022/05/17 03:44:14;;;;;;;7.47;5.30;;;;;;;15.60;54.16;95151.78;5062687;28;20234;-67
2022/05/17 03:46:39;;;;;;;14.60;6.45;;;;;;;15.78;53.31;95172.69;5066010;28;20201;-66
2022/05/17 03:49:04;;;;;;;8.50;5.55;;;;;;;15.84;52.67;95164.03;5067195;28;20263;-68
2022/05/17 03:51:30;;;;;;;9.10;6.28;;;;;;;15.85;52.25;95168.34;5070436;28;20220;-65
2022/05/17 03:53:55;;;;;;;8.73;5.50;;;;;;;15.81;52.61;95177.63;5069608;28;20224;-66
2022/05/17 03:56:21;;;;;;;11.10;5.40;;;;;;;15.87;52.50;95182.22;5065135;28;20270;-65
2022/05/17 03:58:46;;;;;;;7.30;5.25;;;;;;;15.77;52.83;95180.81;5065173;28;20227;-67
2022/05/17 04:01:13;;;;;;;9.50;5.20;;;;;;;15.50;54.39;95182.19;5068306;28;20310;-66
2022/05/17 04:03:40;;;;;;;10.90;6.40;;;;;;;15.15;55.73;95176.47;5063811;28;20240;-67
2022/05/17 04:06:05;;;;;;;8.68;5.20;;;;;;;15.43;55.37;95184.75;5067019;28;20213;-66
2022/05/17 04:08:31;;;;;;;8.73;5.68;;;;;;;15.58;54.70;95184.78;5068069;28;20205;-68
2022/05/17 04:10:57;;;;;;;6.15;5.55;;;;;;;15.67;54.37;95181.06;5069963;28;20239;-67
2022/05/17 04:13:26;;;;;;;7.05;5.47;;;;;;;15.82;54.05;95181.97;5064838;28;20225;-67
2022/05/17 04:15:52;;;;;;;7.40;5.13;;;;;;;15.89;53.39;95171.44;5064122;28;20225;-65
2022/05/17 04:18:17;;;;;;;9.07;5.50;;;;;;;15.80;53.38;95177.84;5062721;28;20217;-68
2022/05/17 04:20:43;;;;;;;10.30;5.28;;;;;;;15.97;53.17;95174.00;5066147;28;20514;-68
2022/05/17 04:23:09;;;;;;;7.63;5.75;;;;;;;16.19;52.25;95174.94;5064804;28;20279;-64
2022/05/17 04:25:41;;;;;;;10.63;6.10;;;;;;;16.22;51.87;95179.88;5051261;28;20347;-65
2022/05/17 04:28:07;;;;;;;8.30;5.57;;;;;;;16.35;51.78;95176.59;5067139;28;20217;-66
2022/05/17 04:30:32;;;;;;;10.32;5.38;;;;;;;16.35;51.61;95189.03;5064406;28;20217;-66
2022/05/17 04:33:01;;;;;;;15.70;14.45;;;;;;;16.27;51.46;95190.75;5064227;28;20270;-67
2022/05/17 04:35:27;;;;;;;10.10;6.25;;;;;;;16.39;50.09;95185.03;5061266;28;20254;-67
2022/05/17 04:37:52;;;;;;;7.70;5.30;;;;;;;16.51;50.18;95180.88;5062826;28;20216;-66
2022/05/17 04:40:18;;;;;;;5.68;5.10;;;;;;;16.55;50.44;95187.47;5064457;28;20247;-65
2022/05/17 04:42:45;;;;;;;9.18;5.18;;;;;;;16.54;49.84;95185.81;5051492;28;20263;-66
2022/05/17 04:45:14;;;;;;;6.15;4.30;;;;;;;16.62;49.03;95190.22;5062162;28;20346;-65
2022/05/17 04:47:41;;;;;;;4.82;4.20;;;;;;;16.72;48.25;95194.22;5064340;28;20228;-65
2022/05/17 04:50:08;;;;;;;6.38;5.00;;;;;;;16.86;48.27;95187.28;5062864;28;20207;-66
2022/05/17 04:52:33;;;;;;;8.95;4.32;;;;;;;16.85;48.16;95198.91;5062539;28;20239;-65
2022/05/17 04:54:59;;;;;;;5.57;4.25;;;;;;;16.94;47.87;95189.81;5064170;28;20221;-67
2022/05/17 04:57:24;;;;;;;6.05;4.18;;;;;;;16.96;48.32;95181.66;5066831;28;20220;-66
2022/05/17 04:59:50;;;;;;;6.57;4.15;;;;;;;17.06;47.44;95187.50;5065282;28;20242;-63
2022/05/17 05:02:15;;;;;;;6.68;3.70;;;;;;;17.12;47.29;95176.13;5066350;28;20291;-65
2022/05/17 05:04:41;;;;;;;5.20;3.47;;;;;;;17.22;47.18;95185.63;5064413;28;20206;-67
2022/05/17 05:07:08;;;;;;;4.97;3.92;;;;;;;17.23;47.28;95187.28;5065284;28;20421;-68
2022/05/17 05:09:34;;;;;;;4.40;3.65;;;;;;;17.24;47.31;95183.59;5064528;28;20231;-66
2022/05/17 05:12:00;;;;;;;5.18;3.70;;;;;;;17.35;46.98;95183.13;5061192;28;20232;-63
2022/05/17 05:14:26;;;;;;;6.95;3.53;;;;;;;17.35;46.77;95185.78;5062410;28;20236;-65
2022/05/17 05:16:51;;;;;;;5.68;3.85;;;;;;;17.00;47.56;95180.31;5063800;28;20204;-66
2022/05/17 05:19:17;;;;;;;9.35;4.35;;;;;;;17.22;47.62;95181.16;5063902;28;20216;-69
2022/05/17 05:21:43;;;;;;;7.72;4.13;;;;;;;17.25;46.84;95177.28;5066298;28;20221;-70
2022/05/17 05:24:10;;;;;;;9.05;4.20;;;;;;;17.18;47.19;95177.19;5062728;28;20216;-71
2022/05/17 05:26:37;;;;;;;13.40;4.50;;;;;;;17.00;48.76;95180.31;5066250;28;20252;-70
2022/05/17 05:29:03;;;;;;;7.07;4.45;;;;;;;17.50;48.20;95178.53;5063166;28;20235;-69
2022/05/17 05:31:29;;;;;;;6.93;4.10;;;;;;;17.46;48.02;95179.94;5060970;28;20335;-68
2022/05/17 05:33:54;;;;;;;6.05;3.58;;;;;;;17.36;47.31;95176.78;5065775;28;20243;-68
2022/05/17 05:36:20;;;;;;;4.90;3.97;;;;;;;17.42;46.79;95176.00;5066224;28;20228;-71
2022/05/17 05:38:45;;;;;;;5.55;3.92;;;;;;;17.33;47.63;95179.81;5065982;28;20222;-68
2022/05/17 05:41:13;;;;;;;6.75;3.92;;;;;;;17.08;48.10;95182.84;5065498;28;20217;-68
2022/05/17 05:43:38;;;;;;;7.22;4.15;;;;;;;17.38;46.88;95182.72;5058142;28;20220;-70
2022/05/17 05:46:04;;;;;;;9.85;3.70;;;;;;;17.49;46.42;95184.88;5061872;28;20232;-65
2022/05/17 05:48:31;;;;;;;7.75;3.67;;;;;;;17.50;46.58;95185.69;5060331;28;20735;-64
2022/05/17 05:50:56;;;;;;;6.15;4.97;;;;;;;17.60;46.81;95181.69;5064738;28;20225;-71
2022/05/17 05:53:22;;;;;;;4.35;3.95;;;;;;;17.79;46.31;95187.41;5067080;28;20223;-73
2022/05/17 05:55:57;;;;;;;5.07;3.65;;;;;;;17.94;45.28;95190.00;5065299;28;20220;-75
2022/05/17 05:58:24;;;;;;;7.68;3.28;;;;;;;18.06;43.85;95185.78;5061159;28;20496;-66
2022/05/17 06:00:49;;;;;;;6.93;3.63;;;;;;;17.89;45.39;95184.44;5075835;28;20222;-73
2022/05/17 06:03:18;;;;;;;4.93;3.58;;;;;;;18.05;44.33;95179.63;5075091;28;20243;-72
2022/05/17 06:05:43;;;;;;;4.88;3.97;;;;;;;18.14;44.06;95182.97;5061304;28;20235;-67
2022/05/17 06:08:16;;;;;;;6.20;3.67;;;;;;;18.14;44.15;95187.47;5062127;28;20196;-68
2022/05/17 06:10:45;;;;;;;7.93;4.72;;;;;;;18.28;43.53;95183.88;5065694;28;20274;-64
2022/05/17 06:13:14;;;;;;;6.50;3.85;;;;;;;18.34;44.24;95183.13;5060653;28;20471;-65
2022/05/17 06:15:40;;;;;;;4.32;3.92;;;;;;;18.43;44.03;95179.25;5062326;28;20224;-69
2022/05/17 06:18:07;;;;;;;7.05;5.22;;;;;;;18.54;44.95;95169.91;5064292;28;20229;-70
2022/05/17 06:20:32;;;;;;;7.05;5.68;;;;;;;18.51;46.16;95188.94;5064051;28;20212;-67
2022/05/17 06:22:58;;;;;;;8.40;6.18;;;;;;;18.55;46.60;95176.03;5061791;28;20205;-67
2022/05/17 06:25:24;;;;;;;8.98;7.10;;;;;;;18.59;46.34;95179.97;5064138;28;20259;-69
2022/05/17 06:27:50;;;;;;;9.85;7.63;;;;;;;18.64;45.50;95172.22;5058548;28;20216;-66
2022/05/17 06:30:17;;;;;;;7.47;6.70;;;;;;;18.71;45.56;95178.38;5078375;28;20225;-70
2022/05/17 06:32:43;;;;;;;8.75;6.18;;;;;;;18.73;45.51;95176.34;5058053;28;20331;-67
2022/05/17 06:35:10;;;;;;;8.70;5.10;;;;;;;18.84;45.35;95183.78;5058391;28;20316;-66
2022/05/17 06:37:37;;;;;;;10.07;5.68;;;;;;;18.91;44.90;95184.63;5057135;28;20229;-63
2022/05/17 06:40:03;;;;;;;9.90;7.10;;;;;;;18.92;45.11;95180.13;5058701;28;20231;-69
2022/05/17 06:42:29;;;;;;;8.48;5.80;;;;;;;18.95;45.28;95166.41;5059879;28;20762;-69
2022/05/17 06:44:54;;;;;;;6.45;5.53;;;;;;;19.02;44.43;95169.09;5060611;28;20225;-71
2022/05/17 06:47:20;;;;;;;9.85;6.13;;;;;;;19.15;43.82;95171.81;5058511;28;20244;-64
2022/05/17 06:49:46;;;;;;;9.95;5.95;;;;;;;19.13;43.96;95172.00;5060093;28;20216;-69
2022/05/17 06:52:12;;;;;;;13.82;7.45;;;;;;;19.15;44.36;95169.97;5063235;28;20220;-62
2022/05/17 06:54:37;;;;;;;12.60;6.68;;;;;;;19.27;44.60;95164.03;5060159;28;20262;-68
2022/05/17 06:57:07;;;;;;;10.63;6.45;;;;;;;19.34;44.51;95173.69;5061018;28;20220;-69
2022/05/17 06:59:35;;;;;;;9.32;6.72;;;;;;;19.35;44.42;95163.84;5059095;28;20243;-64
2022/05/17 07:02:01;;;;;;;9.35;6.60;;;;;;;19.31;44.75;95162.63;5052682;28;20209;-65
2022/05/17 07:04:28;;;;;;;10.48;6.65;;;;;;;19.38;44.11;95163.47;5063501;28;20224;-68
2022/05/17 07:06:56;;;;;;;9.50;6.70;;;;;;;19.51;43.72;95173.31;5064065;28;20225;-65
2022/05/17 07:09:22;;;;;;;12.90;6.70;;;;;;;19.52;44.23;95162.44;5067791;28;20232;-64
2022/05/17 07:14:37;;;;;;;9.15;7.22;;;;;;;19.41;44.01;95159.56;5066160;28;20224;-65
2022/05/17 07:17:25;;;;;;;10.77;6.93;;;;;;;19.61;43.88;95163.88;5063719;28;20205;-67
2022/05/17 07:19:51;;;;;;;12.40;8.23;;;;;;;19.74;43.05;95157.75;5063408;28;20491;-67
2022/05/17 07:22:17;;;;;;;8.18;7.20;;;;;;;19.83;42.95;95156.53;5064449;28;20414;-64
2022/05/17 07:24:45;;;;;;;12.35;7.30;;;;;;;19.68;43.72;95157.78;5062782;28;20260;-63
2022/05/17 07:27:12;;;;;;;11.15;7.93;;;;;;;19.78;43.64;95148.34;5064300;28;20299;-63
2022/05/17 07:29:37;;;;;;;9.27;8.25;;;;;;;19.81;44.26;95150.59;5061596;28;20228;-67
2022/05/17 07:32:03;;;;;;;10.63;7.47;;;;;;;19.96;43.37;95145.00;5062744;28;20185;-67
2022/05/17 07:34:35;;;;;;;14.02;7.43;;;;;;;19.98;42.99;95147.50;5060149;28;20224;-63
2022/05/17 07:37:01;;;;;;;13.07;7.68;;;;;;;19.96;43.48;95142.34;5063384;28;20231;-66
2022/05/17 07:39:27;;;;;;;10.77;6.90;;;;;;;20.03;42.55;95145.84;5062796;28;20471;-68
2022/05/17 07:41:52;;;;;;;11.30;6.80;;;;;;;20.00;42.91;95145.44;5059932;28;20234;-66
2022/05/17 07:44:18;;;;;;;11.23;6.90;;;;;;;20.03;42.47;95145.84;5063483;28;20258;-69
2022/05/17 07:46:44;;;;;;;14.85;7.03;;;;;;;20.10;42.59;95139.66;5061483;28;20221;-68
2022/05/17 07:49:09;;;;;;;13.07;6.30;;;;;;;20.19;41.77;95136.56;5062038;28;20285;-63
2022/05/17 07:51:35;;;;;;;13.23;7.13;;;;;;;20.13;43.09;95137.41;5062477;28;20221;-62
2022/05/17 07:54:01;;;;;;;14.07;8.35;;;;;;;20.10;42.86;95139.66;5063674;28;20220;-67
2022/05/17 07:56:27;;;;;;;11.93;8.10;;;;;;;20.24;41.54;95134.09;5063373;28;20393;-66
2022/05/17 07:58:53;;;;;;;11.13;6.80;;;;;;;20.38;41.41;95115.38;5062744;28;20200;-64
2022/05/17 08:01:18;;;;;;;11.57;6.78;;;;;;;20.46;40.67;95123.16;5057497;28;20323;-65
2022/05/17 08:03:44;;;;;;;11.18;5.93;;;;;;;20.53;40.60;95123.13;5055572;28;20310;-68
2022/05/17 08:06:09;;;;;;;10.48;6.25;;;;;;;20.59;41.38;95119.66;5060474;28;20274;-65
2022/05/17 08:08:35;;;;;;;11.30;6.38;;;;;;;20.68;40.75;95126.41;5063099;28;20221;-66
2022/05/17 08:11:01;;;;;;;11.82;6.03;;;;;;;20.66;42.36;95117.75;5064095;28;20196;-63
2022/05/17 08:13:29;;;;;;;8.63;6.05;;;;;;;20.78;40.53;95116.06;5063788;28;20985;-65
2022/05/17 08:15:55;;;;;;;12.98;6.53;;;;;;;20.76;40.80;95111.97;5051510;28;20236;-65
2022/05/17 08:18:20;;;;;;;10.90;6.20;;;;;;;20.86;39.32;95120.38;5061466;28;20342;-65
2022/05/17 08:20:47;;;;;;;15.73;6.85;;;;;;;20.86;40.30;95110.47;5062627;28;20224;-68
2022/05/17 08:23:13;;;;;;;12.32;6.32;;;;;;;20.92;41.52;95101.59;5061555;28;20204;-63
2022/05/17 08:28:22;;;;;;;11.73;5.90;;;;;;;21.14;41.88;95103.94;5064962;28;20271;-61
2022/05/17 08:30:48;;;;;;;8.82;5.68;;;;;;;21.15;41.38;95105.59;5062538;28;20221;-62
2022/05/17 08:33:16;;;;;;;7.93;6.07;;;;;;;21.19;39.49;95105.97;5064042;28;20221;-59
2022/05/17 08:35:42;;;;;;;11.13;5.85;;;;;;;21.29;38.70;95101.78;5064457;28;20239;-65
2022/05/17 08:38:09;;;;;;;8.35;5.55;;;;;;;21.26;38.44;95099.56;5064626;28;20303;-67
2022/05/17 08:40:47;;;;;;;7.43;5.40;;;;;;;21.37;40.63;95095.38;5065541;28;20220;-68
2022/05/17 08:43:23;;;;;;;10.45;5.75;;;;;;;21.46;39.39;95093.28;5060249;28;20221;-64
2022/05/17 08:46:00;;;;;;;10.63;4.70;;;;;;;21.67;39.82;95092.09;5063477;28;20585;-63
2022/05/17 08:48:33;;;;;;;9.18;5.22;;;;;;;21.73;40.94;95088.53;5064942;28;20320;-63
2022/05/17 08:50:59;;;;;;;7.53;5.03;;;;;;;21.82;38.96;95089.91;5059535;28;20217;-62
2022/05/17 08:53:24;;;;;;;10.93;5.47;;;;;;;21.90;41.66;95088.81;5059589;28;20208;-67
2022/05/17 08:55:51;;;;;;;9.60;5.00;;;;;;;21.90;40.51;95084.25;5060162;28;20204;-63
2022/05/17 08:58:21;;;;;;;9.18;4.22;;;;;;;21.98;35.56;95088.50;5059163;28;20259;-65
2022/05/17 09:01:16;;;;;;;9.15;3.95;;;;;;;22.09;35.05;95084.28;5052590;28;20233;-61
2022/05/17 09:03:56;;;;;;;7.50;3.10;;;;;;;22.07;32.52;95086.38;4995164;28;20230;-69
2022/05/17 09:06:37;;;;;;;4.13;2.97;;;;;;;22.16;31.04;95079.66;5000625;28;20312;-64
2022/05/17 09:09:11;;;;;;;5.15;2.88;;;;;;;22.15;31.94;95070.00;4979818;28;20249;-64
2022/05/17 09:11:57;;;;;;;5.00;3.72;;;;;;;22.18;33.28;95067.72;4999015;28;20222;-64
2022/05/17 09:14:29;;;;;;;14.27;3.75;;;;;;;22.38;34.70;95070.19;4997746;28;20214;-69
2022/05/17 09:16:59;;;;;;;3.60;3.22;;;;;;;22.51;33.71;95066.53;4997914;28;20242;-66
2022/05/17 09:19:26;;;;;;;3.10;2.80;;;;;;;22.67;30.64;95067.78;4997047;28;20396;-67
2022/05/17 09:21:53;;;;;;;3.95;2.78;;;;;;;22.67;31.11;95063.25;4983038;28;20234;-66
2022/05/17 09:24:21;;;;;;;5.13;3.20;;;;;;;22.80;30.89;95069.44;4983505;28;20226;-69
2022/05/17 09:26:52;;;;;;;4.32;3.08;;;;;;;22.89;30.84;95063.56;4985850;28;20233;-69
2022/05/17 09:29:36;;;;;;;5.50;3.53;;;;;;;23.03;30.98;95060.72;4986858;28;20573;-67
2022/05/17 09:32:07;;;;;;;5.10;3.58;;;;;;;23.19;32.47;95060.06;4999490;28;20202;-68
2022/05/17 09:34:37;;;;;;;3.53;2.60;;;;;;;23.38;28.68;95060.00;5000907;28;20317;-64
2022/05/17 09:37:11;;;;;;;3.25;2.13;;;;;;;23.50;26.16;95058.16;4999852;28;20218;-66
2022/05/17 09:39:37;;;;;;;5.15;2.75;;;;;;;23.63;27.36;95047.22;5003982;28;20296;-65
2022/05/17 09:42:05;;;;;;;3.95;2.78;;;;;;;23.63;27.44;95052.59;5060555;28;20220;-66
2022/05/17 09:44:33;;;;;;;4.40;2.85;;;;;;;23.69;26.96;95051.66;5074511;28;20208;-71
2022/05/17 09:47:02;;;;;;;7.90;3.05;;;;;;;23.72;27.38;95039.66;5059616;28;20211;-71
2022/05/17 09:52:32;;;;;;;4.93;2.80;;;;;;;23.99;27.79;95031.94;5057197;28;20224;-69
2022/05/17 09:55:22;;;;;;;5.57;3.08;;;;;;;24.17;28.41;95036.38;5058434;28;20336;-69
2022/05/17 09:57:53;;;;;;;4.70;2.67;;;;;;;24.27;28.80;95031.22;5053411;28;20229;-70
2022/05/17 10:00:24;;;;;;;7.13;2.67;;;;;;;24.39;27.45;95023.91;5053295;28;20224;-71
2022/05/17 10:02:54;;;;;;;5.10;2.72;;;;;;;24.49;27.40;95022.53;5057759;28;20213;-70
2022/05/17 10:05:45;;;;;;;3.22;2.72;;;;;;;24.55;25.37;95025.06;5056403;28;20211;-71
2022/05/17 10:08:13;;;;;;;4.45;2.97;;;;;;;24.56;25.49;95013.25;5060003;28;20192;-68
2022/05/17 10:10:47;;;;;;;2.95;2.50;;;;;;;24.73;24.99;95007.94;5058390;28;20224;-65
2022/05/17 10:13:41;;;;;;;4.50;2.67;;;;;;;24.84;24.39;95012.44;5059394;28;20221;-66
2022/05/17 10:16:18;;;;;;;4.90;2.47;;;;;;;24.92;25.13;95016.63;5060321;28;20248;-71
2022/05/17 10:18:54;;;;;;;4.40;2.50;;;;;;;24.93;24.84;95012.06;5073337;28;20228;-67
2022/05/17 10:21:34;;;;;;;3.13;2.63;;;;;;;25.13;24.72;95006.22;5058635;28;20216;-64
2022/05/17 10:24:18;;;;;;;5.07;2.63;;;;;;;25.39;25.46;95002.91;5058810;28;20220;-70
2022/05/17 10:26:51;;;;;;;5.03;3.10;;;;;;;25.45;24.87;95014.63;5058613;28;20217;-68
2022/05/17 10:29:22;;;;;;;7.60;2.45;;;;;;;25.29;24.09;95008.97;5057616;28;20213;-69
2022/05/17 10:32:00;;;;;;;2.65;2.30;;;;;;;25.30;24.78;94996.31;5057339;28;20258;-72
2022/05/17 10:34:49;;;;;;;5.22;2.78;;;;;;;25.46;23.75;94994.69;5053904;28;20362;-75
2022/05/17 10:37:21;;;;;;;5.50;2.67;;;;;;;25.69;24.04;94991.81;5050830;28;20301;-73
2022/05/17 10:39:50;;;;;;;4.45;2.55;;;;;;;25.74;22.80;94986.53;5054903;28;20233;-71
2022/05/17 10:42:16;;;;;;;2.92;2.53;;;;;;;25.90;23.22;94974.13;5060203;28;20227;-70
2022/05/17 10:44:50;;;;;;;4.20;2.70;;;;;;;26.09;23.55;94971.94;5064391;28;20221;-77
2022/05/17 10:48:07;;;;;;;3.00;2.58;;;;;;;26.30;23.53;94970.31;5061431;28;20222;-75
2022/05/17 10:50:45;;;;;;;3.53;2.60;;;;;;;26.39;23.17;94974.19;4967189;28;20219;-67
2022/05/17 10:53:37;;;;;;;3.38;2.50;;;;;;;26.48;22.49;94968.34;4949630;28;20212;-73
2022/05/17 10:56:06;;;;;;;2.33;2.08;;;;;;;26.35;21.79;94959.56;4961485;28;20310;-70
2022/05/17 10:58:44;;;;;;;2.97;2.13;;;;;;;26.38;21.38;94963.63;4961956;28;20808;-71
2022/05/17 11:01:36;;;;;;;3.42;2.85;;;;;;;26.42;23.34;94958.56;4944051;28;20232;-70
2022/05/17 11:04:17;;;;;;;4.57;3.15;;;;;;;26.54;21.69;94953.88;4948273;28;20224;-68
2022/05/17 11:06:54;;;;;;;4.65;1.98;;;;;;;26.58;22.24;94941.53;4949138;28;20314;-78
2022/05/17 11:09:28;;;;;;;3.45;2.55;;;;;;;26.74;23.26;94934.41;4951078;28;20250;-70
2022/05/17 11:12:05;;;;;;;3.33;2.35;;;;;;;26.94;24.43;94933.78;4949439;28;20239;-77
2022/05/17 11:14:48;;;;;;;2.35;2.13;;;;;;;27.14;22.92;94922.34;4964335;28;20203;-70
2022/05/17 11:17:36;;;;;;;2.90;2.40;;;;;;;27.28;23.16;94932.47;4960486;28;20207;-70
2022/05/17 11:20:16;;;;;;;4.68;2.45;;;;;;;27.56;21.42;94921.56;4950543;28;20271;-64
2022/05/17 11:23:13;;;;;;;2.67;2.45;;;;;;;27.67;23.14;94921.41;4948328;28;20220;-69
2022/05/17 11:25:54;;;;;;;3.90;2.33;;;;;;;27.85;22.19;94920.19;4992605;28;20259;-67
2022/05/17 11:28:53;;;;;;;4.38;2.40;;;;;;;27.82;21.54;94917.16;5060211;28;20696;-66
2022/05/17 11:31:47;;;;;;;3.03;2.10;;;;;;;27.94;22.45;94909.69;5062329;28;20229;-61
2022/05/17 11:34:22;;;;;;;2.60;2.40;;;;;;;28.06;22.25;94915.66;5050745;28;20217;-67
2022/05/17 11:36:49;;;;;;;4.65;2.40;;;;;;;28.14;22.74;94904.34;5064321;28;20240;-67
2022/05/17 11:39:46;;;;;;;2.78;2.42;;;;;;;28.43;21.95;94900.38;5060374;28;20237;-64
2022/05/17 11:42:33;;;;;;;3.03;2.50;;;;;;;28.56;22.10;94895.31;5012706;28;20241;-71
2022/05/17 11:45:45;;;;;;;4.93;2.80;;;;;;;28.76;21.89;94899.94;5009474;28;20218;-70
2022/05/17 11:48:23;;;;;;;4.07;2.30;;;;;;;28.79;20.60;94893.19;4911714;29;20229;-65
2022/05/17 11:50:51;;;;;;;2.80;2.28;;;;;;;28.73;21.46;94889.63;4914100;29;20225;-67